Baken-Pakete - Kartenansicht · Info · Telemetrie · Wetter · Rohdaten · Status · Baken · Mitteilungen · Nachrichten · durchsuchen · bewegend · Mein Benutzerkonto
Absenderrufzeichen
Zeige:

Lade beacon Pakete...

Pakete von APRS Baken werden für 14 Tage gespeichert. Es ist möglich bei der Suche einen Platzhalter (*?) nach dem Präfix zu verwenden.

2019-05-20 03:11:35 EDT: F5ZZQ-3>UIDIGI: UIDIGI 1.9
2019-05-20 03:11:39 EDT: F5ZVO>UIDIGI: UIDIGI 1.9
2019-05-20 03:11:40 EDT: ZL2KO-1>UIDIGI: UIDIGI 1.9
2019-05-20 03:11:42 EDT: VK3ATM-7>ID: VK3ATM in Parkdale Packet 1200 439.05 Mhz 144.90 Mhz
2019-05-20 03:11:51 EDT: K0YTH-10>UIDIGI: UIDIGI 1.9
2019-05-20 03:11:52 EDT: CQ0PCM-3>BEACON: APRS LOCAL ALTO ALENTEJO (REP)
2019-05-20 03:11:52 EDT: W2AEE>ID: W2AEE/R RELAY/R WIDE/R TRACE/R TRACEn-n/R WIDEn-n/R
2019-05-20 03:11:54 EDT: N6EX-4>UIDIGI: UIDIGI 1.9
2019-05-20 03:11:54 EDT: N6UTC-5>ID: N6UTC-5/R W0LVES/D N6UTC-3/G N6UTC-1/B
2019-05-20 03:11:54 EDT: KM6FCD-2>ID: Network Node (MTWASH)
2019-05-20 03:11:48 EDT: SQUAW>BEACON: SQUAW PEAK DIGI W7EI
2019-05-20 03:11:54 EDT: KM6FCD>BEACON: Hello from Dodgers Stadium, Mount Washington (MTWASH)
2019-05-20 03:11:57 EDT: WB2ZII>ID: WB2ZII/R RELAY/R WIDE/R TRACE/R WIDEn-n/R TRACEn-n/R
2019-05-20 03:12:00 EDT: KA2QYE-10>UIDIGI: UIDIGI 1.9
2019-05-20 03:12:02 EDT: IW2FCH-9>BEACON: PLXTracker op. Antonio U=13.3V.
2019-05-20 03:12:04 EDT: WALSH>BEACON: WX5ASA 444.65*000000z3458.58N/09924.62Wp_100.0 Tone ALTUS SKYWARN
2019-05-20 03:12:04 EDT: WA5CC-7>ID: WA5CC/R
2019-05-20 03:12:05 EDT: W4NN-1>BEACON: W4NN-1 Wn EARS DIGI EGLIN AFB FL
2019-05-20 03:12:06 EDT: SR4NWQ>UIDIGI: UIDIGI 1.9
2019-05-20 03:12:10 EDT: K2VIZ-2>ID: K2VIZ/R
2019-05-20 03:11:55 EDT: IR6AF>UIDIGI: UIDIGI*1.9
2019-05-20 03:11:57 EDT: SUNPKS>BEACON: Hello from the Top of the World! Sun Peaks Resort Solar-powered APRS Digipeater
2019-05-20 03:11:59 EDT: KI4WEF-10>BEACON: Corinth KY Fill in Digi. EC Grant County.
2019-05-20 03:12:01 EDT: SM5RVH-15>BEACON: SM5RVH-14 - HF Packet - Mailbox
2019-05-20 03:12:04 EDT: WA8RSA-5>ID: Node (OTTAWA) WA8RSA-5 BPQ Net/Rom Switch Zeeland Michigan
2019-05-20 03:12:05 EDT: K8QIK-7>ID: Network node (LANSW2)
2019-05-20 03:12:07 EDT: KA0GFC-3>BEACON: <UI>:
2019-05-20 03:12:09 EDT: BLKMTN>BEACON: Black Mt Digi KA7SHX
2019-05-20 03:12:13 EDT: VA3PPI-4>ID: Wunderground WX Station VA3PPI ISCUGOG7
2019-05-20 03:12:20 EDT: ED2ZAD-3>BEACON: Asociacion Radioaficionados Bilbainos -
2019-05-20 03:12:21 EDT: ERINB>BEACON: Duckabush Valley on OIDAR HILL....K7IDX
2019-05-20 03:12:24 EDT: VE7RKA>BEACON: VE7RKA Greenstone Mtn IRLP Node 1080 de VE7FSR
2019-05-20 03:12:28 EDT: 9A3XK>BEACON: CRLNet.108 - SysOp 9a3XK & 9a7kxp-Internet via DJWIRELES http://djw.hr/
2019-05-20 03:12:30 EDT: WHTNY>BEACON: KD5DMT-5 APRS Digipeater
2019-05-20 03:12:30 EDT: IR5AM>UIDIGI: UIDIGI 1.9
2019-05-20 03:12:32 EDT: PD3EM-2>BEACON: WX3in1 Digipeater Alblasserwaard
2019-05-20 03:12:34 EDT: KE0AE>BEACON: Genoa, Colo. WX/APRS Digi Station Voice 147.060 PL 103.5
2019-05-20 03:12:38 EDT: 9A3XK>BEACON: Power 9W Gain 3dB Height 240m Ant omni
2019-05-20 03:12:39 EDT: W9MKS-15>ID: W9MKS-15/R SRRC/D W9MKS-1/B W9MKS-7/N
2019-05-20 03:12:40 EDT: JH7UPL>BEACON: ü@ü@Z:0409 æÕôÆëÀÉ‗ GL=QN00KH åÿÊ»¥░╝Ìé═JH7UPL-1é╔åÖ
2019-05-20 03:12:12 EDT: IU8LDF-2>UIDIGI: UIDIGI 1.9
2019-05-20 03:12:13 EDT: OE2XHR-11>UIDIGI: UIDIGI 1.9
2019-05-20 03:12:14 EDT: K0HAM-9>UIDIGI: UIDIGI 1.9
2019-05-20 03:12:23 EDT: VE7SDP>BEACON: VE7SDP, Sidney Emergency Program
2019-05-20 03:12:30 EDT: K8QIK-2>ID: Network node (LANSW1)
2019-05-20 03:12:33 EDT: VE3ORC-4>BEACON: Next Meeting March 13, 2019 1900 hrs
2019-05-20 03:12:34 EDT: K5PAL-1>UIDIGI: UIDIGI 1.8
2019-05-20 03:12:34 EDT: N3HYM-5>ID: APRS - BBS - Chat - Node - RMS Server,Frederick,Md. HF=7.101 VHF=145.030
2019-05-20 03:12:36 EDT: DB0MZG-2>UIDIGI: UIDIGI 1.9
2019-05-20 03:12:40 EDT: W7KKE-3>BEACON: :
< vorhergehender
FAQ · Blog · Diskussionsgruppe · Link zu aprs.fi · AIS-Sites · Status des Servers · Datenbank Statistiken · Werbe auf aprs.fi · Technische Details · API · Änderungen · geplante Änderungen · Dank an · Nutzungsbedingungen · iPhone/iPad APRS